LTBR/YEI METAR and TAF weather

Enter ICAO airport designator
Station Type Date Time Source
LTBR METAR 2018/12/11 23:20 UTC NOAA

LTBR 112320Z VRB02KT 1400 0750SE R25/P1500U R07/0900U BCFG SCT007 SCT025 BKN090 01/01 Q1013 NOSIG


Station Type Date Time Source
LTBR Decoded METAR 2018/12/11 23:20 UTC NOAA

Bursa / Yenisehir, Mil-Civ, Turkey (LTBR) 40-15-19N 029-33-45E
Dec 11, 2018 - 06:20 PM EST / 2018.12.11 2320 UTC
Wind: Variable at 2 MPH (2 KT):0
Visibility: less than 1 mile:0
Sky conditions: mostly cloudy
Weather: patches of fog
Temperature: 33 F (1 C)
Dew Point: 33 F (1 C)
Relative Humidity: 100%
Pressure (altimeter): 29.91 in. Hg (1013 hPa)
ob: LTBR 112320Z VRB02KT 1400 0750SE R25/P1500U R07/0900U BCFG SCT007 SCT025 BKN090 01/01 Q1013 NOSIG
cycle: 23

Station Type Date Time Source
LTBR TAF 2018/12/11 21:30 UTC NOAA

TAF
AMD TAF
AMD LTBR 112114Z 1121/1218 VRB02KT 2500 BR SCT007 BKN100
BECMG 1121/1123 1200 BCFG PROB40 1200/1204 0400 FZFG BKN003
BECMG 1203/1205 7000 -SHRA BKN020 BKN080 PROB30
TEMPO 1205/1208 4000 -SHRASN BR PROB40 1211/1215 30012KT
BECMG 1213/1216 CAVOK


Example: see airport list